createdAt,value
2023-05-06T00:00:13.464Z,54.16
2023-05-06T00:00:51.480Z,54.44
2023-05-06T00:01:24.445Z,53.86
2023-05-06T00:01:56.731Z,54.08
2023-05-06T00:02:29.859Z,53.87
2023-05-06T00:03:04.810Z,54.13
2023-05-06T00:03:37.235Z,54.29
2023-05-06T00:04:09.570Z,54.27
2023-05-06T00:04:47.141Z,54.40
2023-05-06T00:05:19.977Z,54.46
2023-05-06T00:05:52.663Z,54.55
2023-05-06T00:06:27.667Z,54.06
2023-05-06T00:06:59.811Z,54.13
2023-05-06T00:07:32.002Z,54.24
2023-05-06T00:08:07.571Z,54.69
2023-05-06T00:08:39.725Z,54.83
2023-05-06T00:09:11.933Z,54.38
2023-05-06T00:09:47.072Z,54.88
2023-05-06T00:10:19.329Z,54.71
2023-05-06T00:10:51.563Z,54.66
2023-05-06T00:11:23.785Z,54.76
2023-05-06T00:11:58.594Z,54.85
2023-05-06T00:12:30.849Z,54.96
2023-05-06T00:13:03.212Z,55.00
2023-05-06T00:13:38.191Z,55.06
2023-05-06T00:14:10.381Z,55.03
2023-05-06T00:14:42.648Z,54.75
2023-05-06T00:15:17.480Z,54.63
2023-05-06T00:15:49.637Z,54.99
2023-05-06T00:16:21.884Z,54.74
2023-05-06T00:16:56.691Z,55.38
2023-05-06T00:17:28.862Z,55.60
2023-05-06T00:18:01.693Z,55.24
2023-05-06T00:18:36.600Z,55.49
2023-05-06T00:19:08.805Z,55.93
2023-05-06T00:19:44.626Z,55.52
2023-05-06T00:20:19.483Z,55.25
2023-05-06T00:20:51.705Z,55.49
2023-05-06T00:21:23.878Z,55.43
2023-05-06T00:21:58.690Z,55.35
2023-05-06T00:22:30.930Z,55.47
2023-05-06T00:23:03.089Z,55.33
2023-05-06T00:23:37.818Z,55.49
2023-05-06T00:24:09.981Z,55.20
2023-05-06T00:24:42.389Z,55.61
2023-05-06T00:25:17.261Z,55.38
2023-05-06T00:25:49.519Z,55.09
2023-05-06T00:26:21.795Z,55.04
2023-05-06T00:26:56.917Z,55.19
2023-05-06T00:27:29.126Z,55.39
2023-05-06T00:28:01.515Z,55.42
2023-05-06T00:28:36.283Z,55.42
2023-05-06T00:29:08.412Z,55.80
2023-05-06T00:29:40.539Z,55.93
2023-05-06T00:30:13.400Z,55.50
2023-05-06T00:30:48.188Z,55.47
2023-05-06T00:31:20.477Z,55.46
2023-05-06T00:31:52.785Z,55.65
2023-05-06T00:32:27.896Z,55.45
2023-05-06T00:33:00.233Z,55.42
2023-05-06T00:33:32.413Z,55.80
2023-05-06T00:34:07.132Z,55.39
2023-05-06T00:34:39.274Z,55.50
2023-05-06T00:35:14.071Z,55.60
2023-05-06T00:35:48.955Z,55.68
2023-05-06T00:36:21.231Z,55.28
2023-05-06T00:36:53.457Z,55.45
2023-05-06T00:37:28.736Z,55.47
2023-05-06T00:38:08.110Z,55.31
2023-05-06T00:38:40.897Z,55.25
2023-05-06T00:39:16.488Z,55.82
2023-05-06T00:39:48.694Z,55.49
2023-05-06T00:40:20.852Z,55.72
2023-05-06T00:40:55.669Z,55.71
2023-05-06T00:41:31.972Z,55.26
2023-05-06T00:42:04.350Z,55.46
2023-05-06T00:42:39.309Z,55.26
2023-05-06T00:43:12.357Z,55.47
2023-05-06T00:43:44.514Z,55.48
2023-05-06T00:44:19.327Z,55.80
2023-05-06T00:44:51.747Z,55.36
2023-05-06T00:45:25.045Z,55.56
2023-05-06T00:45:59.997Z,55.82
2023-05-06T00:46:32.194Z,55.95
2023-05-06T00:47:05.207Z,55.99
2023-05-06T00:47:40.261Z,55.59
2023-05-06T00:48:12.719Z,55.72
2023-05-06T00:48:45.214Z,56.06
2023-05-06T00:49:19.990Z,55.68
2023-05-06T00:49:52.396Z,55.57
2023-05-06T00:50:28.450Z,55.89
2023-05-06T00:51:03.278Z,56.14
2023-05-06T00:51:36.095Z,55.92
2023-05-06T00:52:08.606Z,55.76
2023-05-06T00:52:43.534Z,55.91
2023-05-06T00:53:15.909Z,55.79
2023-05-06T00:53:48.528Z,56.01
2023-05-06T00:54:23.695Z,56.26
2023-05-06T00:54:56.738Z,55.93
2023-05-06T00:55:29.148Z,56.12
2023-05-06T00:56:04.115Z,55.98
2023-05-06T00:56:36.305Z,56.03
2023-05-06T00:57:08.609Z,56.17
2023-05-06T00:57:43.521Z,55.95
2023-05-06T00:58:15.820Z,56.02
2023-05-06T00:58:48.659Z,55.78
2023-05-06T00:59:23.423Z,56.31
2023-05-06T00:59:55.800Z,56.00
2023-05-06T01:00:28.009Z,56.31
2023-05-06T01:01:03.392Z,56.05
2023-05-06T01:01:35.801Z,56.37
2023-05-06T01:02:08.904Z,56.19
2023-05-06T01:02:47.176Z,56.21
2023-05-06T01:03:23.024Z,56.15
2023-05-06T01:03:58.806Z,55.98
2023-05-06T01:04:31.376Z,55.97
2023-05-06T01:05:07.064Z,55.79
2023-05-06T01:05:51.489Z,56.36
2023-05-06T01:06:30.053Z,56.05
2023-05-06T01:07:26.594Z,56.04
2023-05-06T01:08:04.869Z,55.92
2023-05-06T01:08:44.810Z,56.06
2023-05-06T01:09:25.534Z,56.28
2023-05-06T01:10:05.244Z,56.03
2023-05-06T01:10:46.384Z,56.12
2023-05-06T01:11:30.837Z,56.23
2023-05-06T01:12:09.999Z,55.90
2023-05-06T01:12:50.820Z,56.52
2023-05-06T01:13:37.399Z,56.05
2023-05-06T01:14:16.770Z,56.14
2023-05-06T01:15:00.195Z,55.97
2023-05-06T01:15:40.210Z,56.39
2023-05-06T01:16:14.960Z,56.01
2023-05-06T01:16:52.976Z,55.91
2023-05-06T01:17:30.940Z,56.18
2023-05-06T01:18:09.507Z,55.81
2023-05-06T01:18:43.982Z,55.72
2023-05-06T01:19:32.083Z,56.11
2023-05-06T01:20:06.482Z,55.88
2023-05-06T01:20:40.360Z,56.10
2023-05-06T01:21:18.682Z,56.10
2023-05-06T01:21:54.971Z,56.10
2023-05-06T01:22:29.031Z,56.26
2023-05-06T01:23:05.150Z,56.09
2023-05-06T01:23:58.589Z,56.34
2023-05-06T01:24:38.546Z,56.04
2023-05-06T01:25:22.109Z,56.30
2023-05-06T01:25:54.300Z,56.48
2023-05-06T01:26:27.556Z,56.33
2023-05-06T01:26:59.732Z,56.37
2023-05-06T01:27:34.662Z,56.65
2023-05-06T01:28:11.794Z,56.42
2023-05-06T01:28:43.934Z,56.33
2023-05-06T01:29:18.778Z,56.58
2023-05-06T01:29:51.145Z,56.48
2023-05-06T01:30:28.143Z,56.30
2023-05-06T01:31:08.216Z,56.08
2023-05-06T01:31:46.125Z,56.28
2023-05-06T01:32:34.052Z,56.33
2023-05-06T01:33:15.049Z,56.31
2023-05-06T01:33:54.660Z,56.42
2023-05-06T01:34:36.220Z,56.18
2023-05-06T01:35:19.921Z,57.06
2023-05-06T01:36:02.037Z,56.80
2023-05-06T01:36:41.454Z,56.78
2023-05-06T01:37:24.830Z,56.55
2023-05-06T01:38:06.380Z,56.68
2023-05-06T01:38:45.981Z,56.59
2023-05-06T01:39:28.203Z,56.38
2023-05-06T01:40:03.420Z,56.50
2023-05-06T01:40:38.638Z,56.51
2023-05-06T01:41:18.342Z,56.47
2023-05-06T01:41:53.689Z,56.71
2023-05-06T01:42:27.571Z,56.47
2023-05-06T01:43:05.178Z,56.55
2023-05-06T01:43:41.910Z,56.88
2023-05-06T01:44:15.867Z,56.90
2023-05-06T01:44:50.164Z,56.54
2023-05-06T01:45:28.543Z,56.52
2023-05-06T01:46:01.732Z,56.46
2023-05-06T01:46:36.425Z,56.29
2023-05-06T01:47:13.090Z,56.67
2023-05-06T01:47:46.774Z,56.39
2023-05-06T01:48:21.197Z,56.08
2023-05-06T01:48:58.080Z,56.33
2023-05-06T01:49:30.777Z,56.35
2023-05-06T01:50:03.723Z,56.70
2023-05-06T01:50:39.577Z,56.29
2023-05-06T01:51:11.798Z,56.49
2023-05-06T01:51:48.218Z,56.43
2023-05-06T01:52:24.338Z,56.45
2023-05-06T01:52:58.803Z,56.75
2023-05-06T01:53:32.078Z,56.79
2023-05-06T01:54:07.964Z,56.73
2023-05-06T01:54:42.713Z,56.88
2023-05-06T01:55:15.158Z,56.63
2023-05-06T01:55:49.967Z,56.83
2023-05-06T01:56:22.485Z,56.60
2023-05-06T01:56:54.656Z,56.72
2023-05-06T01:57:27.666Z,56.79
2023-05-06T01:58:02.484Z,56.67
2023-05-06T01:58:34.657Z,56.78
2023-05-06T01:59:06.926Z,56.80
2023-05-06T01:59:41.786Z,56.85
2023-05-06T02:00:14.863Z,56.98
2023-05-06T02:00:47.028Z,57.00
2023-05-06T02:01:22.119Z,57.26
2023-05-06T02:01:54.401Z,57.25
2023-05-06T02:02:27.368Z,57.04
2023-05-06T02:03:02.224Z,56.98
2023-05-06T02:03:34.636Z,56.79
2023-05-06T02:04:07.244Z,57.08
2023-05-06T02:04:42.390Z,57.09
2023-05-06T02:05:14.736Z,57.23
2023-05-06T02:05:51.156Z,57.05
2023-05-06T02:06:25.996Z,57.06
2023-05-06T02:06:58.615Z,57.07
2023-05-06T02:07:30.808Z,57.25
2023-05-06T02:08:05.622Z,57.37
2023-05-06T02:08:39.282Z,57.38
2023-05-06T02:09:11.644Z,56.97
2023-05-06T02:09:52.941Z,57.28
2023-05-06T02:10:25.191Z,57.33
2023-05-06T02:11:03.532Z,56.78
2023-05-06T02:11:39.074Z,56.78
2023-05-06T02:12:12.809Z,57.05
2023-05-06T02:12:45.004Z,56.83
2023-05-06T02:13:22.080Z,57.04
2023-05-06T02:13:55.375Z,57.54
2023-05-06T02:14:27.540Z,57.29
2023-05-06T02:15:00.384Z,57.32
2023-05-06T02:15:35.099Z,56.96
2023-05-06T02:16:09.050Z,57.40
2023-05-06T02:16:41.733Z,57.18
2023-05-06T02:17:16.573Z,57.42
2023-05-06T02:17:49.457Z,57.14
2023-05-06T02:18:21.830Z,56.80
2023-05-06T02:18:57.091Z,56.70
2023-05-06T02:19:29.487Z,57.19
2023-05-06T02:20:02.559Z,57.04
2023-05-06T02:20:37.838Z,57.09
2023-05-06T02:21:10.748Z,56.95
2023-05-06T02:21:42.924Z,57.26
2023-05-06T02:22:17.680Z,57.11
2023-05-06T02:22:50.261Z,56.75
2023-05-06T02:23:22.496Z,56.74
2023-05-06T02:23:57.276Z,56.66
2023-05-06T02:24:30.306Z,56.72
2023-05-06T02:25:06.064Z,56.83
2023-05-06T02:25:40.877Z,56.65
2023-05-06T02:26:13.151Z,56.56
2023-05-06T02:26:45.277Z,56.63
2023-05-06T02:27:20.172Z,56.96
2023-05-06T02:27:52.319Z,56.82
2023-05-06T02:28:24.602Z,56.69
2023-05-06T02:28:59.519Z,56.53
2023-05-06T02:29:31.694Z,56.58
2023-05-06T02:30:04.231Z,56.90
2023-05-06T02:30:38.974Z,57.00
2023-05-06T02:31:13.673Z,57.03
2023-05-06T02:31:46.977Z,56.80
2023-05-06T02:32:24.105Z,56.73
2023-05-06T02:32:56.353Z,57.15
2023-05-06T02:33:28.591Z,56.62
2023-05-06T02:34:03.379Z,56.77
2023-05-06T02:34:35.616Z,57.14
2023-05-06T02:35:09.232Z,56.65
2023-05-06T02:35:44.171Z,57.13
2023-05-06T02:36:16.370Z,56.97
2023-05-06T02:36:48.541Z,56.61
2023-05-06T02:37:23.466Z,56.67
2023-05-06T02:37:56.322Z,56.91
2023-05-06T02:38:28.480Z,56.76
2023-05-06T02:39:03.214Z,56.86
2023-05-06T02:39:35.467Z,56.70
2023-05-06T02:40:11.400Z,56.76
2023-05-06T02:40:46.219Z,57.21
2023-05-06T02:41:18.677Z,57.07
2023-05-06T02:41:53.441Z,56.93
2023-05-06T02:42:25.668Z,56.95
2023-05-06T02:42:57.877Z,56.96
2023-05-06T02:43:32.685Z,56.85
2023-05-06T02:44:05.483Z,57.43
2023-05-06T02:44:37.698Z,57.34
2023-05-06T02:45:13.454Z,57.20
2023-05-06T02:45:45.703Z,56.94
2023-05-06T02:46:17.974Z,56.86
2023-05-06T02:46:51.197Z,56.63
2023-05-06T02:47:26.243Z,57.04
2023-05-06T02:47:58.479Z,57.23
2023-05-06T02:48:30.871Z,57.23
2023-05-06T02:49:05.734Z,57.37
2023-05-06T02:49:37.903Z,57.38
2023-05-06T02:50:10.440Z,56.95
2023-05-06T02:50:45.158Z,57.24
2023-05-06T02:51:17.350Z,57.26
2023-05-06T02:51:49.498Z,57.48
2023-05-06T02:52:24.365Z,56.97
2023-05-06T02:52:56.597Z,57.16
2023-05-06T02:53:28.769Z,57.44
2023-05-06T02:54:03.605Z,57.04
2023-05-06T02:54:35.782Z,57.00
2023-05-06T02:55:11.868Z,56.79
2023-05-06T02:55:46.918Z,56.98
2023-05-06T02:56:19.331Z,56.84
2023-05-06T02:56:51.922Z,57.04
2023-05-06T02:57:27.073Z,56.92
2023-05-06T02:57:59.218Z,56.60
2023-05-06T02:58:31.388Z,56.72
2023-05-06T02:59:06.440Z,56.63
2023-05-06T02:59:38.707Z,56.96
2023-05-06T03:00:13.041Z,57.01
2023-05-06T03:00:47.901Z,56.82
2023-05-06T03:01:20.104Z,57.05
2023-05-06T03:01:52.306Z,57.11
2023-05-06T03:02:27.348Z,57.45
2023-05-06T03:02:59.623Z,56.99
2023-05-06T03:03:31.862Z,57.21
2023-05-06T03:04:07.327Z,57.10
2023-05-06T03:04:39.603Z,56.73
2023-05-06T03:05:12.424Z,56.46
2023-05-06T03:05:47.492Z,56.43
2023-05-06T03:06:19.667Z,56.33
2023-05-06T03:06:52.214Z,56.51
2023-05-06T03:07:27.028Z,56.18
2023-05-06T03:07:59.366Z,56.09
2023-05-06T03:08:31.659Z,55.89
2023-05-06T03:09:06.886Z,56.11
2023-05-06T03:09:39.636Z,56.27
2023-05-06T03:10:14.488Z,55.66
2023-05-06T03:10:50.484Z,55.81
2023-05-06T03:11:24.683Z,55.81
2023-05-06T03:11:57.230Z,55.65
2023-05-06T03:12:32.107Z,55.79
2023-05-06T03:13:04.321Z,55.67
2023-05-06T03:13:36.541Z,56.02
2023-05-06T03:14:11.280Z,55.80
2023-05-06T03:14:43.414Z,55.66
2023-05-06T03:15:16.537Z,55.44
2023-05-06T03:15:54.944Z,55.48
2023-05-06T03:16:27.803Z,55.71
2023-05-06T03:17:03.706Z,55.85
2023-05-06T03:17:41.514Z,55.39
2023-05-06T03:18:13.747Z,55.50
2023-05-06T03:18:46.142Z,55.37
2023-05-06T03:19:21.176Z,55.51
2023-05-06T03:19:53.531Z,54.85
2023-05-06T03:20:28.959Z,54.90
2023-05-06T03:21:05.405Z,54.98
2023-05-06T03:21:39.955Z,54.99
2023-05-06T03:22:12.243Z,55.31
2023-05-06T03:22:50.407Z,55.20
2023-05-06T03:23:23.237Z,55.06
2023-05-06T03:23:55.385Z,55.10
2023-05-06T03:24:32.622Z,54.86
2023-05-06T03:25:06.226Z,55.10
2023-05-06T03:25:42.486Z,54.65
2023-05-06T03:26:17.388Z,54.95
2023-05-06T03:26:50.935Z,54.25
2023-05-06T03:27:23.225Z,54.44
2023-05-06T03:28:01.610Z,54.15
2023-05-06T03:28:35.507Z,54.41
2023-05-06T03:29:08.949Z,54.29
2023-05-06T03:29:41.649Z,54.21
2023-05-06T03:30:17.957Z,54.17
2023-05-06T03:30:51.416Z,54.25
2023-05-06T03:31:23.649Z,54.12
2023-05-06T03:31:59.461Z,54.41
2023-05-06T03:32:31.983Z,54.40
2023-05-06T03:33:05.029Z,54.70
2023-05-06T03:33:41.277Z,54.48
2023-05-06T03:34:15.023Z,54.93
2023-05-06T03:34:47.234Z,54.66
2023-05-06T03:35:26.419Z,54.77
2023-05-06T03:36:02.285Z,55.02
2023-05-06T03:36:37.222Z,54.72
2023-05-06T03:37:10.006Z,54.80
2023-05-06T03:37:43.115Z,54.67
2023-05-06T03:38:18.336Z,54.47
2023-05-06T03:38:57.749Z,54.28
2023-05-06T03:39:29.931Z,54.83
2023-05-06T03:40:07.690Z,53.93
2023-05-06T03:40:42.710Z,54.08
2023-05-06T03:41:15.113Z,53.66
2023-05-06T03:41:49.891Z,53.69
2023-05-06T03:42:23.185Z,53.36
2023-05-06T03:42:55.563Z,53.59
2023-05-06T03:43:31.646Z,53.28
2023-05-06T03:44:06.283Z,53.35
2023-05-06T03:44:38.538Z,52.99
2023-05-06T03:45:13.755Z,53.10
2023-05-06T03:45:46.803Z,53.49
2023-05-06T03:46:19.266Z,53.48
2023-05-06T03:46:54.376Z,53.61
2023-05-06T03:47:26.865Z,53.31
2023-05-06T03:47:59.253Z,53.71
2023-05-06T03:48:34.531Z,53.36
2023-05-06T03:49:06.685Z,53.39
2023-05-06T03:49:39.052Z,53.08
2023-05-06T03:50:11.538Z,52.93
2023-05-06T03:50:47.492Z,52.91
2023-05-06T03:51:20.550Z,53.44
2023-05-06T03:51:53.771Z,53.59
2023-05-06T03:52:30.258Z,53.57
2023-05-06T03:53:03.522Z,53.13
2023-05-06T03:53:38.551Z,52.99
2023-05-06T03:54:13.321Z,53.22
2023-05-06T03:54:45.532Z,53.12
2023-05-06T03:55:18.495Z,53.18
2023-05-06T03:55:53.496Z,53.38
2023-05-06T03:56:28.588Z,52.81
2023-05-06T03:57:02.702Z,53.16
2023-05-06T03:57:35.854Z,52.96
2023-05-06T03:58:11.580Z,53.28
2023-05-06T03:58:44.930Z,53.02
2023-05-06T03:59:17.760Z,52.99
2023-05-06T03:59:53.162Z,53.12
2023-05-06T04:00:26.205Z,53.32
2023-05-06T04:01:01.164Z,53.20
2023-05-06T04:01:36.574Z,53.34
2023-05-06T04:02:09.088Z,53.22
2023-05-06T04:02:42.895Z,53.67
2023-05-06T04:03:21.213Z,53.72
2023-05-06T04:03:55.998Z,53.74
2023-05-06T04:04:30.065Z,53.68
2023-05-06T04:05:05.009Z,53.81
2023-05-06T04:05:37.282Z,53.56
2023-05-06T04:06:09.964Z,53.70
2023-05-06T04:06:44.982Z,54.08
2023-05-06T04:07:17.156Z,54.17
2023-05-06T04:07:49.645Z,54.45
2023-05-06T04:08:21.902Z,54.21
2023-05-06T04:08:56.893Z,54.33
2023-05-06T04:09:29.197Z,54.57
2023-05-06T04:10:01.434Z,54.31
2023-05-06T04:10:40.213Z,54.25
2023-05-06T04:11:21.277Z,54.81
2023-05-06T04:11:54.299Z,54.98
2023-05-06T04:12:30.017Z,55.07
2023-05-06T04:13:02.517Z,54.77
2023-05-06T04:13:42.938Z,54.65
2023-05-06T04:14:22.501Z,55.07
2023-05-06T04:14:54.697Z,54.90
2023-05-06T04:15:26.831Z,54.99
2023-05-06T04:16:01.772Z,55.06
2023-05-06T04:16:41.566Z,55.08
2023-05-06T04:17:13.766Z,55.08
2023-05-06T04:17:49.579Z,55.12
2023-05-06T04:18:21.729Z,55.41
2023-05-06T04:19:06.253Z,55.38
2023-05-06T04:19:43.393Z,55.25
2023-05-06T04:20:16.374Z,55.09
2023-05-06T04:20:48.786Z,55.39
2023-05-06T04:21:23.888Z,54.96
2023-05-06T04:22:02.605Z,55.16
2023-05-06T04:22:35.013Z,54.79
2023-05-06T04:23:10.031Z,55.21
2023-05-06T04:23:42.899Z,54.99
2023-05-06T04:24:17.031Z,54.77
2023-05-06T04:24:52.125Z,55.48
2023-05-06T04:25:24.717Z,55.58
2023-05-06T04:25:58.122Z,55.56
2023-05-06T04:26:36.814Z,55.46
2023-05-06T04:27:09.740Z,55.43
2023-05-06T04:27:42.679Z,55.27
2023-05-06T04:28:16.626Z,55.32
2023-05-06T04:28:53.371Z,55.16
2023-05-06T04:29:26.471Z,54.99
2023-05-06T04:30:08.710Z,54.91
2023-05-06T04:30:41.855Z,55.18
2023-05-06T04:31:14.894Z,55.28
2023-05-06T04:31:56.117Z,54.98
2023-05-06T04:32:30.028Z,55.15
2023-05-06T04:33:02.937Z,54.97
2023-05-06T04:33:38.961Z,54.78
2023-05-06T04:34:16.801Z,54.98
2023-05-06T04:34:49.868Z,54.89
2023-05-06T04:35:24.704Z,54.69
2023-05-06T04:36:01.099Z,55.29
2023-05-06T04:36:35.323Z,55.15
2023-05-06T04:37:21.567Z,54.87
2023-05-06T04:37:58.243Z,55.16
2023-05-06T04:38:35.917Z,54.63
2023-05-06T04:39:10.795Z,54.77
2023-05-06T04:39:47.558Z,54.25
2023-05-06T04:40:20.209Z,54.71
2023-05-06T04:40:57.581Z,54.50
2023-05-06T04:41:31.326Z,54.40
2023-05-06T04:42:06.286Z,54.24
2023-05-06T04:42:48.164Z,53.93
2023-05-06T04:43:26.246Z,54.42
2023-05-06T04:44:03.917Z,54.54
2023-05-06T04:44:38.962Z,54.46
2023-05-06T04:45:14.518Z,54.88
2023-05-06T04:45:50.047Z,54.65
2023-05-06T04:46:29.194Z,54.45
2023-05-06T04:47:01.500Z,54.01
2023-05-06T04:47:34.589Z,53.77
2023-05-06T04:48:10.367Z,53.76
2023-05-06T04:48:42.998Z,54.02
2023-05-06T04:49:17.449Z,53.75
2023-05-06T04:49:52.893Z,53.88
2023-05-06T04:50:25.924Z,53.63
2023-05-06T04:50:58.934Z,54.08
2023-05-06T04:51:33.843Z,53.82
2023-05-06T04:52:06.883Z,53.75
2023-05-06T04:52:39.368Z,53.91
2023-05-06T04:53:15.964Z,53.93
2023-05-06T04:53:48.210Z,53.68
2023-05-06T04:54:20.456Z,53.85
2023-05-06T04:54:55.205Z,53.76
2023-05-06T04:55:28.172Z,53.45
2023-05-06T04:56:00.381Z,53.28
2023-05-06T04:56:36.302Z,53.88
2023-05-06T04:57:12.867Z,53.60
2023-05-06T04:57:46.875Z,54.20
2023-05-06T04:58:21.853Z,53.92
2023-05-06T04:58:54.093Z,54.10
2023-05-06T04:59:26.412Z,53.57
2023-05-06T05:00:01.510Z,53.26
2023-05-06T05:00:33.905Z,53.12
2023-05-06T05:01:08.271Z,53.29
2023-05-06T05:01:43.248Z,53.65
2023-05-06T05:02:16.736Z,53.83
2023-05-06T05:02:49.484Z,53.52
2023-05-06T05:03:25.762Z,53.42
2023-05-06T05:04:00.671Z,53.37
2023-05-06T05:04:32.824Z,53.23
2023-05-06T05:05:09.106Z,53.23
2023-05-06T05:05:42.167Z,53.47
2023-05-06T05:06:20.548Z,53.28
2023-05-06T05:06:55.981Z,53.20
2023-05-06T05:07:28.185Z,53.23
2023-05-06T05:08:00.551Z,53.38
2023-05-06T05:08:37.412Z,53.35
2023-05-06T05:09:10.786Z,53.42
2023-05-06T05:09:45.820Z,53.30
2023-05-06T05:10:20.957Z,53.04
2023-05-06T05:10:54.370Z,53.69
2023-05-06T05:11:28.984Z,53.74
2023-05-06T05:12:06.169Z,53.41
2023-05-06T05:12:44.694Z,53.08
2023-05-06T05:13:16.968Z,53.34
2023-05-06T05:13:54.813Z,53.20
2023-05-06T05:14:28.872Z,53.03
2023-05-06T05:15:01.089Z,53.10
2023-05-06T05:15:36.318Z,53.09
2023-05-06T05:16:09.213Z,53.04
2023-05-06T05:16:44.348Z,53.14
2023-05-06T05:17:19.107Z,53.32
2023-05-06T05:17:53.807Z,53.22
2023-05-06T05:18:29.341Z,52.94
2023-05-06T05:19:09.403Z,52.80
2023-05-06T05:19:42.293Z,52.68
2023-05-06T05:20:15.095Z,52.95
2023-05-06T05:20:49.890Z,53.15
2023-05-06T05:21:23.157Z,52.75
2023-05-06T05:21:55.315Z,52.85
2023-05-06T05:22:31.802Z,52.93
2023-05-06T05:23:04.035Z,52.59
2023-05-06T05:23:37.021Z,52.56
2023-05-06T05:24:11.878Z,52.75
2023-05-06T05:24:44.148Z,52.32
2023-05-06T05:25:16.976Z,52.67
2023-05-06T05:25:52.101Z,52.95
2023-05-06T05:26:24.769Z,52.56
2023-05-06T05:26:58.505Z,52.39
2023-05-06T05:27:34.463Z,52.47
2023-05-06T05:28:09.754Z,52.28
2023-05-06T05:28:44.376Z,52.09
2023-05-06T05:29:20.500Z,52.21
2023-05-06T05:29:53.866Z,52.30
2023-05-06T05:30:27.091Z,52.37
2023-05-06T05:31:05.023Z,52.28
2023-05-06T05:31:40.436Z,52.10
2023-05-06T05:32:12.979Z,52.08
2023-05-06T05:32:47.897Z,51.78
2023-05-06T05:33:21.662Z,51.85
2023-05-06T05:33:54.006Z,52.16
2023-05-06T05:34:30.813Z,51.89
2023-05-06T05:35:03.084Z,52.43
2023-05-06T05:35:35.521Z,51.64
2023-05-06T05:36:12.894Z,51.47
2023-05-06T05:36:45.120Z,51.70
2023-05-06T05:37:19.491Z,51.60
2023-05-06T05:37:54.450Z,51.48
2023-05-06T05:38:27.129Z,51.63
2023-05-06T05:38:59.366Z,51.25
2023-05-06T05:39:36.450Z,50.93
2023-05-06T05:40:10.183Z,50.84
2023-05-06T05:40:44.832Z,50.64
2023-05-06T05:41:19.865Z,50.08
2023-05-06T05:41:52.272Z,50.16
2023-05-06T05:42:24.684Z,50.01
2023-05-06T05:42:59.930Z,49.80
2023-05-06T05:43:40.678Z,49.79
2023-05-06T05:44:12.970Z,49.89
2023-05-06T05:44:48.527Z,50.08
2023-05-06T05:45:21.410Z,50.53
2023-05-06T05:45:54.708Z,50.23
2023-05-06T05:46:29.461Z,49.90
2023-05-06T05:47:03.072Z,49.55
2023-05-06T05:47:35.898Z,49.09
2023-05-06T05:48:10.958Z,49.57
2023-05-06T05:48:43.920Z,49.12
2023-05-06T05:49:16.922Z,49.31
2023-05-06T05:49:51.669Z,49.52
2023-05-06T05:50:24.486Z,49.53
2023-05-06T05:50:57.499Z,49.77
2023-05-06T05:51:32.500Z,48.92
2023-05-06T05:52:08.184Z,48.17
2023-05-06T05:52:41.102Z,48.27
2023-05-06T05:53:16.059Z,48.24
2023-05-06T05:53:48.496Z,48.44
2023-05-06T05:54:21.634Z,48.09
2023-05-06T05:54:56.408Z,47.83
2023-05-06T05:55:29.918Z,47.35
2023-05-06T05:56:02.269Z,47.21
2023-05-06T05:56:37.240Z,46.90
2023-05-06T05:57:09.857Z,47.24
2023-05-06T05:57:42.627Z,47.05
2023-05-06T05:58:17.358Z,47.43
2023-05-06T05:58:52.783Z,46.71
2023-05-06T05:59:25.320Z,46.55
2023-05-06T06:00:01.802Z,46.63
2023-05-06T06:00:35.099Z,46.44
2023-05-06T06:01:14.799Z,46.14
2023-05-06T06:01:49.550Z,45.89
2023-05-06T06:02:22.025Z,46.28
2023-05-06T06:02:54.453Z,46.25
2023-05-06T06:03:29.334Z,46.39
2023-05-06T06:04:01.655Z,46.06
2023-05-06T06:04:35.176Z,46.26
2023-05-06T06:05:12.042Z,46.16
2023-05-06T06:05:44.354Z,46.19
2023-05-06T06:06:17.637Z,46.26
2023-05-06T06:06:52.988Z,45.92
2023-05-06T06:07:25.788Z,45.68
2023-05-06T06:07:58.819Z,45.98
2023-05-06T06:08:34.380Z,45.65
2023-05-06T06:09:07.479Z,45.67
2023-05-06T06:09:41.902Z,45.51
2023-05-06T06:10:16.738Z,45.87
2023-05-06T06:10:49.893Z,45.22
2023-05-06T06:11:27.868Z,44.63
2023-05-06T06:12:02.751Z,44.26
2023-05-06T06:12:35.952Z,44.30
2023-05-06T06:13:09.727Z,44.15
2023-05-06T06:13:45.195Z,44.85
2023-05-06T06:14:21.022Z,43.95
2023-05-06T06:14:57.038Z,43.76
2023-05-06T06:15:31.865Z,44.02
2023-05-06T06:16:04.526Z,44.15
2023-05-06T06:16:41.454Z,44.10
2023-05-06T06:17:13.828Z,44.09
2023-05-06T06:17:46.137Z,43.86
2023-05-06T06:18:20.947Z,43.29
2023-05-06T06:18:54.102Z,42.76
2023-05-06T06:19:26.512Z,42.69
2023-05-06T06:20:02.146Z,42.86
2023-05-06T06:20:34.397Z,42.85
2023-05-06T06:21:06.766Z,41.88
2023-05-06T06:21:42.820Z,41.45
2023-05-06T06:22:15.218Z,41.76
2023-05-06T06:22:47.437Z,42.17
2023-05-06T06:23:22.615Z,41.49
2023-05-06T06:23:55.018Z,41.15
2023-05-06T06:24:27.316Z,41.41
2023-05-06T06:25:02.158Z,41.79
2023-05-06T06:25:34.428Z,41.67
2023-05-06T06:26:06.669Z,42.00
2023-05-06T06:26:41.730Z,42.10
2023-05-06T06:27:14.077Z,42.50
2023-05-06T06:27:46.284Z,42.27
2023-05-06T06:28:21.154Z,42.22
2023-05-06T06:28:53.361Z,42.83
2023-05-06T06:29:28.189Z,41.95
2023-05-06T06:30:02.937Z,41.67
2023-05-06T06:30:35.194Z,41.99
2023-05-06T06:31:07.394Z,42.60
2023-05-06T06:31:42.172Z,42.52
2023-05-06T06:32:14.404Z,42.84
2023-05-06T06:32:50.948Z,41.33
2023-05-06T06:33:25.915Z,42.19
2023-05-06T06:33:58.056Z,42.09
2023-05-06T06:34:30.242Z,42.37
2023-05-06T06:35:05.080Z,41.96
2023-05-06T06:35:37.259Z,41.49
2023-05-06T06:36:10.024Z,40.79
2023-05-06T06:36:46.214Z,40.73
2023-05-06T06:37:18.337Z,40.36
2023-05-06T06:37:50.497Z,40.13
2023-05-06T06:38:26.022Z,40.05
2023-05-06T06:38:58.326Z,40.14
2023-05-06T06:39:30.576Z,40.76
2023-05-06T06:40:05.335Z,41.36
2023-05-06T06:40:37.520Z,40.60
2023-05-06T06:41:12.278Z,40.10
2023-05-06T06:41:44.473Z,40.54
2023-05-06T06:42:16.666Z,40.20
2023-05-06T06:42:59.226Z,41.16
2023-05-06T06:43:54.479Z,41.04
2023-05-06T06:44:36.314Z,40.53
2023-05-06T06:45:10.390Z,40.25
2023-05-06T06:45:46.957Z,40.02
2023-05-06T06:46:21.956Z,39.44
2023-05-06T06:46:54.106Z,39.97
2023-05-06T06:47:26.519Z,38.10
2023-05-06T06:48:01.364Z,39.78
2023-05-06T06:48:33.604Z,41.09
2023-05-06T06:49:05.796Z,40.81
2023-05-06T06:49:40.603Z,41.14
2023-05-06T06:50:13.067Z,40.39
2023-05-06T06:50:45.442Z,40.52
2023-05-06T06:51:20.199Z,40.04
2023-05-06T06:51:52.551Z,38.60
2023-05-06T06:52:24.763Z,39.45
2023-05-06T06:52:59.582Z,39.05
2023-05-06T06:53:31.866Z,39.02
2023-05-06T06:54:04.217Z,39.78
2023-05-06T06:54:40.460Z,40.18
2023-05-06T06:55:12.771Z,39.92
2023-05-06T06:55:45.632Z,38.84
2023-05-06T06:56:20.398Z,38.83
2023-05-06T06:56:54.416Z,38.16
2023-05-06T06:57:26.702Z,38.95
2023-05-06T06:58:01.457Z,39.06
2023-05-06T06:58:33.892Z,38.58
2023-05-06T06:59:07.750Z,38.63
2023-05-06T06:59:45.380Z,38.24
2023-05-06T07:00:18.048Z,38.40
2023-05-06T07:00:52.788Z,37.26
2023-05-06T07:01:25.237Z,36.35
2023-05-06T07:01:57.406Z,35.46
2023-05-06T07:02:32.233Z,35.94
2023-05-06T07:03:04.659Z,36.50
2023-05-06T07:03:37.009Z,36.48
2023-05-06T07:04:12.007Z,36.23
2023-05-06T07:04:44.314Z,36.23
2023-05-06T07:05:16.746Z,36.40
2023-05-06T07:05:52.031Z,35.25
2023-05-06T07:06:24.149Z,36.17
2023-05-06T07:06:56.921Z,35.98
2023-05-06T07:07:31.662Z,35.47
2023-05-06T07:08:03.889Z,34.95
2023-05-06T07:08:38.714Z,34.87
2023-05-06T07:09:11.022Z,35.24
2023-05-06T07:09:44.542Z,35.26
2023-05-06T07:10:19.556Z,34.95
2023-05-06T07:10:51.704Z,34.05
2023-05-06T07:11:23.863Z,35.08
2023-05-06T07:11:58.846Z,35.00
2023-05-06T07:12:31.109Z,35.17
2023-05-06T07:13:03.443Z,34.86
2023-05-06T07:13:38.248Z,34.78
2023-05-06T07:14:11.801Z,34.09
2023-05-06T07:14:46.601Z,35.16
2023-05-06T07:15:21.637Z,35.33
2023-05-06T07:15:53.812Z,35.76
2023-05-06T07:16:25.986Z,35.08
2023-05-06T07:17:01.029Z,34.87
2023-05-06T07:17:33.317Z,34.17
2023-05-06T07:18:08.740Z,33.74
2023-05-06T07:18:40.911Z,33.85
2023-05-06T07:19:13.159Z,34.46
2023-05-06T07:19:47.893Z,35.15
2023-05-06T07:20:20.050Z,35.19
2023-05-06T07:20:52.333Z,35.57
2023-05-06T07:21:27.274Z,35.55
2023-05-06T07:21:59.954Z,34.30
2023-05-06T07:22:34.671Z,34.90
2023-05-06T07:23:06.826Z,34.44
2023-05-06T07:23:39.034Z,33.52